Time;durP1;ratioP1;P1;durP2;ratioP2;P2;SDS_P1;SDS_P2;PMS_P1;PMS_P2;Temp;Humidity;BMP_temperature;BMP_pressure;BME280_temperature;BME280_humidity;BME280_pressure;Samples;Min_cycle;Max_cycle;Signal;HPM_P1;HPM_P2
2023/04/09 00:00:04;;;;;;;79.75;47.75;;;;;;;;;;5041552;28;20062;-75
2023/04/09 00:02:30;;;;;;;80.97;47.92;;;;;;;;;;5033349;28;20453;-75
2023/04/09 00:04:56;;;;;;;78.55;47.72;;;;;;;;;;5051145;28;20124;-75
2023/04/09 00:07:22;;;;;;;80.10;47.28;;;;;;;;;;5044732;28;20049;-75
2023/04/09 00:09:48;;;;;;;78.65;45.38;;;;;;;;;;5051339;28;20408;-75
2023/04/09 00:12:14;;;;;;;76.32;47.00;;;;;;;;;;5043299;28;20135;-75
2023/04/09 00:14:40;;;;;;;80.78;45.78;;;;;;;;;;5044025;28;20037;-75
2023/04/09 00:17:06;;;;;;;77.38;46.80;;;;;;;;;;5057532;28;20074;-75
2023/04/09 00:19:32;;;;;;;76.43;45.97;;;;;;;;;;5057962;28;20136;-75
2023/04/09 00:21:58;;;;;;;78.93;43.25;;;;;;;;;;5057272;28;20148;-75
2023/04/09 00:24:24;;;;;;;71.95;43.53;;;;;;;;;;5057297;28;20070;-75
2023/04/09 00:26:52;;;;;;;68.45;41.25;;;;;;;;;;5054744;28;20053;-75
2023/04/09 00:29:18;;;;;;;69.82;42.42;;;;;;;;;;5056861;28;20051;-75
2023/04/09 00:31:44;;;;;;;67.68;41.05;;;;;;;;;;5053261;28;20075;-75
2023/04/09 00:34:10;;;;;;;71.25;41.92;;;;;;;;;;5049853;28;20045;-75
2023/04/09 00:36:36;;;;;;;67.65;40.67;;;;;;;;;;5038151;28;20447;-75
2023/04/09 00:39:02;;;;;;;72.40;42.95;;;;;;;;;;5020930;28;20045;-75
2023/04/09 00:41:28;;;;;;;64.63;40.30;;;;;;;;;;5036480;28;20046;-75
2023/04/09 00:43:56;;;;;;;73.18;43.03;;;;;;;;;;5039748;28;20115;-75
2023/04/09 00:46:22;;;;;;;68.00;42.20;;;;;;;;;;5050054;28;20045;-75
2023/04/09 00:48:48;;;;;;;68.75;40.58;;;;;;;;;;5038784;28;20086;-75
2023/04/09 00:51:14;;;;;;;71.43;41.47;;;;;;;;;;5042967;28;20041;-75
2023/04/09 00:53:40;;;;;;;64.68;40.22;;;;;;;;;;5057910;28;20063;-75
2023/04/09 00:56:06;;;;;;;62.63;37.67;;;;;;;;;;5040534;28;20044;-75
2023/04/09 00:58:33;;;;;;;61.50;37.92;;;;;;;;;;5040539;28;20063;-75
2023/04/09 01:00:59;;;;;;;56.83;36.10;;;;;;;;;;5056137;28;20064;-75
2023/04/09 01:03:25;;;;;;;55.50;33.90;;;;;;;;;;5047759;28;20049;-74
2023/04/09 01:06:00;;;;;;;48.17;30.10;;;;;;;;;;5020299;28;20132;-74
2023/04/09 01:08:30;;;;;;;49.63;30.70;;;;;;;;;;5038270;28;20045;-74
2023/04/09 01:11:07;;;;;;;43.67;28.42;;;;;;;;;;5038342;28;20041;-74
2023/04/09 01:13:49;;;;;;;44.40;28.95;;;;;;;;;;5034615;28;20053;-74
2023/04/09 01:16:15;;;;;;;46.13;28.95;;;;;;;;;;5018188;28;20045;-75
2023/04/09 01:18:45;;;;;;;46.55;28.92;;;;;;;;;;5048984;28;20055;-75
2023/04/09 01:21:13;;;;;;;47.85;30.90;;;;;;;;;;5039946;28;20041;-75
2023/04/09 01:23:47;;;;;;;45.67;29.30;;;;;;;;;;5038802;28;20128;-75
2023/04/09 01:26:31;;;;;;;47.83;29.65;;;;;;;;;;5017632;28;20046;-75
2023/04/09 01:28:58;;;;;;;48.03;28.70;;;;;;;;;;5043304;28;20041;-75
2023/04/09 01:31:29;;;;;;;44.38;28.30;;;;;;;;;;5022387;28;20089;-75
2023/04/09 01:33:56;;;;;;;44.20;27.05;;;;;;;;;;5042056;28;20091;-75
2023/04/09 01:36:23;;;;;;;39.97;26.35;;;;;;;;;;5053200;28;20049;-75
2023/04/09 01:38:52;;;;;;;41.33;26.85;;;;;;;;;;5053228;28;20400;-75
2023/04/09 01:41:23;;;;;;;41.60;25.60;;;;;;;;;;5052919;28;20092;-75
2023/04/09 01:43:50;;;;;;;40.53;26.67;;;;;;;;;;5054880;28;20041;-75
2023/04/09 01:46:21;;;;;;;39.17;24.25;;;;;;;;;;5052833;28;20041;-75
2023/04/09 01:48:47;;;;;;;39.80;24.98;;;;;;;;;;5054204;28;20037;-75
2023/04/09 01:51:14;;;;;;;38.75;25.35;;;;;;;;;;5052822;28;20053;-75
2023/04/09 01:53:40;;;;;;;38.88;24.65;;;;;;;;;;5053403;28;20083;-75
2023/04/09 01:56:07;;;;;;;40.95;24.90;;;;;;;;;;5054241;28;20076;-75
2023/04/09 01:58:34;;;;;;;41.28;25.27;;;;;;;;;;5053346;28;20120;-75
2023/04/09 02:01:04;;;;;;;38.88;25.90;;;;;;;;;;5051230;28;20366;-75
2023/04/09 02:03:35;;;;;;;37.97;24.30;;;;;;;;;;5054159;28;20041;-75
2023/04/09 02:06:07;;;;;;;37.90;24.95;;;;;;;;;;5052912;28;20047;-75
2023/04/09 02:08:34;;;;;;;39.72;23.58;;;;;;;;;;5053677;28;20119;-74
2023/04/09 02:11:02;;;;;;;41.75;23.63;;;;;;;;;;5052194;28;20127;-75
2023/04/09 02:13:29;;;;;;;37.30;24.00;;;;;;;;;;5050659;28;20045;-75
2023/04/09 02:15:56;;;;;;;38.13;23.45;;;;;;;;;;5051538;28;20489;-75
2023/04/09 02:18:22;;;;;;;35.83;23.05;;;;;;;;;;5052857;28;20052;-75
2023/04/09 02:20:49;;;;;;;35.38;22.90;;;;;;;;;;5051871;28;20186;-74
2023/04/09 02:23:16;;;;;;;34.75;22.75;;;;;;;;;;5053416;28;20075;-75
2023/04/09 02:25:42;;;;;;;33.60;21.92;;;;;;;;;;5053158;28;20049;-75
2023/04/09 02:28:08;;;;;;;33.65;22.10;;;;;;;;;;5052657;28;20052;-75
2023/04/09 02:30:34;;;;;;;36.95;22.17;;;;;;;;;;5049174;28;20405;-76
2023/04/09 02:33:00;;;;;;;36.97;23.02;;;;;;;;;;5050980;28;20143;-75
2023/04/09 02:35:26;;;;;;;35.88;22.67;;;;;;;;;;5053272;28;20041;-75
2023/04/09 02:37:52;;;;;;;36.33;23.27;;;;;;;;;;5051934;28;20486;-75
2023/04/09 02:40:18;;;;;;;35.72;22.45;;;;;;;;;;5053418;28;20041;-74
2023/04/09 02:42:44;;;;;;;33.33;22.33;;;;;;;;;;5053002;28;20033;-75
2023/04/09 02:45:10;;;;;;;35.85;22.92;;;;;;;;;;5053342;28;20044;-74
2023/04/09 02:47:36;;;;;;;37.05;23.50;;;;;;;;;;5051947;28;20051;-74
2023/04/09 02:50:02;;;;;;;39.50;24.65;;;;;;;;;;5049650;28;20044;-75
2023/04/09 02:52:28;;;;;;;36.33;23.95;;;;;;;;;;5052035;28;20055;-75
2023/04/09 02:54:54;;;;;;;38.50;23.88;;;;;;;;;;5052848;28;20564;-74
2023/04/09 02:57:20;;;;;;;40.08;24.42;;;;;;;;;;5051150;28;20051;-75
2023/04/09 02:59:46;;;;;;;35.92;23.55;;;;;;;;;;5051404;28;20063;-75
2023/04/09 03:02:12;;;;;;;40.85;25.42;;;;;;;;;;5052556;28;20485;-75
2023/04/09 03:04:39;;;;;;;40.78;27.10;;;;;;;;;;5035528;28;20374;-75
2023/04/09 03:07:05;;;;;;;41.88;26.92;;;;;;;;;;5053046;28;20036;-74
2023/04/09 03:09:31;;;;;;;41.15;27.90;;;;;;;;;;5052703;28;20063;-75
2023/04/09 03:11:57;;;;;;;43.58;27.17;;;;;;;;;;5051833;28;20378;-75
2023/04/09 03:14:23;;;;;;;45.20;28.52;;;;;;;;;;5042726;28;20056;-74
2023/04/09 03:16:49;;;;;;;41.55;27.35;;;;;;;;;;5048269;28;20358;-74
2023/04/09 03:19:15;;;;;;;41.55;26.73;;;;;;;;;;5043366;28;20047;-75
2023/04/09 03:21:42;;;;;;;42.25;26.70;;;;;;;;;;5052803;28;20071;-74
2023/04/09 03:24:08;;;;;;;44.22;26.67;;;;;;;;;;5051019;28;20420;-74
2023/04/09 03:26:37;;;;;;;42.65;26.65;;;;;;;;;;5034470;28;20096;-75
2023/04/09 03:29:06;;;;;;;42.45;26.63;;;;;;;;;;5050607;28;20106;-74
2023/04/09 03:31:32;;;;;;;47.70;28.17;;;;;;;;;;5050315;28;20405;-74
2023/04/09 03:33:58;;;;;;;43.58;28.90;;;;;;;;;;5051649;28;20053;-74
2023/04/09 03:36:26;;;;;;;49.38;29.38;;;;;;;;;;5052209;28;20217;-74
2023/04/09 03:38:52;;;;;;;46.33;29.52;;;;;;;;;;5052828;28;20456;-74
2023/04/09 03:41:19;;;;;;;48.45;29.38;;;;;;;;;;5034099;28;20048;-74
2023/04/09 03:43:45;;;;;;;46.83;29.20;;;;;;;;;;5051530;28;20150;-74
2023/04/09 03:46:12;;;;;;;44.08;28.98;;;;;;;;;;5052142;28;20440;-74
2023/04/09 03:48:38;;;;;;;42.63;28.65;;;;;;;;;;5051927;28;20107;-74
2023/04/09 03:51:04;;;;;;;47.75;28.75;;;;;;;;;;5033885;28;20041;-75
2023/04/09 03:53:30;;;;;;;44.70;28.27;;;;;;;;;;5052089;28;20055;-75
2023/04/09 03:55:56;;;;;;;44.45;27.02;;;;;;;;;;5052496;28;20045;-75
2023/04/09 03:58:22;;;;;;;45.42;28.92;;;;;;;;;;5052379;28;20103;-75
2023/04/09 04:00:49;;;;;;;46.25;28.38;;;;;;;;;;5034070;28;20196;-74
2023/04/09 04:03:15;;;;;;;42.30;26.83;;;;;;;;;;5051766;28;20045;-75
2023/04/09 04:05:41;;;;;;;42.95;28.27;;;;;;;;;;5051720;28;20123;-75
2023/04/09 04:08:07;;;;;;;41.72;25.58;;;;;;;;;;5050307;28;20048;-75
2023/04/09 04:10:34;;;;;;;41.40;27.10;;;;;;;;;;5017796;28;20064;-75
2023/04/09 04:13:01;;;;;;;41.92;26.85;;;;;;;;;;5017880;28;20048;-75
2023/04/09 04:15:27;;;;;;;43.63;27.10;;;;;;;;;;5048095;28;20056;-75
2023/04/09 04:17:53;;;;;;;39.05;26.92;;;;;;;;;;5033975;28;20040;-75
2023/04/09 04:20:19;;;;;;;42.95;27.10;;;;;;;;;;5034253;28;20048;-75
2023/04/09 04:22:45;;;;;;;40.58;26.15;;;;;;;;;;5033499;28;20045;-75
2023/04/09 04:25:11;;;;;;;42.55;25.80;;;;;;;;;;5051901;28;20075;-75
2023/04/09 04:27:37;;;;;;;41.30;26.35;;;;;;;;;;5051662;28;20040;-75
2023/04/09 04:30:03;;;;;;;46.70;27.48;;;;;;;;;;5032682;28;20532;-75
2023/04/09 04:32:29;;;;;;;42.95;27.45;;;;;;;;;;5049814;28;20057;-75
2023/04/09 04:34:55;;;;;;;41.47;27.50;;;;;;;;;;5050708;28;20044;-75
2023/04/09 04:37:21;;;;;;;43.53;26.77;;;;;;;;;;5051665;28;20041;-75
2023/04/09 04:39:47;;;;;;;42.58;27.48;;;;;;;;;;5051861;28;20045;-75
2023/04/09 04:42:13;;;;;;;44.65;27.55;;;;;;;;;;5033758;28;20041;-75
2023/04/09 04:44:39;;;;;;;43.65;26.35;;;;;;;;;;5034053;28;20043;-75
2023/04/09 04:47:05;;;;;;;45.92;27.40;;;;;;;;;;5051568;28;20045;-75
2023/04/09 04:49:31;;;;;;;43.47;26.60;;;;;;;;;;5051636;28;20531;-75
2023/04/09 04:51:57;;;;;;;43.20;27.08;;;;;;;;;;5051172;28;20453;-75
2023/04/09 04:54:23;;;;;;;48.30;29.55;;;;;;;;;;5051103;28;20481;-74
2023/04/09 04:56:49;;;;;;;43.47;26.67;;;;;;;;;;5051926;28;20307;-76
2023/04/09 04:59:15;;;;;;;48.88;30.98;;;;;;;;;;5017009;28;20060;-74
2023/04/09 05:01:41;;;;;;;42.92;29.02;;;;;;;;;;5053036;28;20044;-74
2023/04/09 05:04:08;;;;;;;42.45;26.92;;;;;;;;;;5021045;28;20048;-75
2023/04/09 05:06:37;;;;;;;42.75;26.85;;;;;;;;;;5037794;28;20049;-74
2023/04/09 05:09:03;;;;;;;51.38;30.52;;;;;;;;;;5036682;28;20041;-75
2023/04/09 05:11:29;;;;;;;44.65;28.73;;;;;;;;;;5054986;28;20508;-75
2023/04/09 05:13:55;;;;;;;48.55;30.42;;;;;;;;;;5048700;28;20041;-75
2023/04/09 05:16:21;;;;;;;48.03;29.05;;;;;;;;;;5034071;28;20045;-75
2023/04/09 05:18:48;;;;;;;50.25;31.67;;;;;;;;;;5034549;28;20132;-75
2023/04/09 05:21:13;;;;;;;48.28;32.08;;;;;;;;;;5017216;28;20056;-75
2023/04/09 05:23:40;;;;;;;45.72;31.27;;;;;;;;;;5026565;28;20045;-75
2023/04/09 05:26:06;;;;;;;48.75;30.20;;;;;;;;;;5052965;28;20052;-75
2023/04/09 05:28:32;;;;;;;45.65;30.00;;;;;;;;;;5053314;28;20128;-75
2023/04/09 05:30:58;;;;;;;47.70;31.15;;;;;;;;;;5052140;28;20053;-74
2023/04/09 05:33:24;;;;;;;50.33;30.80;;;;;;;;;;5052741;28;20135;-74
2023/04/09 05:35:50;;;;;;;50.20;30.60;;;;;;;;;;5036111;28;20124;-75
2023/04/09 05:38:16;;;;;;;47.83;31.30;;;;;;;;;;5054577;28;20070;-75
2023/04/09 05:40:44;;;;;;;48.30;30.60;;;;;;;;;;5054876;28;20045;-75
2023/04/09 05:43:10;;;;;;;47.90;30.15;;;;;;;;;;5054763;28;20085;-74
2023/04/09 05:45:37;;;;;;;48.97;30.67;;;;;;;;;;5053313;28;20037;-75
2023/04/09 05:48:03;;;;;;;47.85;30.17;;;;;;;;;;5035614;28;20083;-75
2023/04/09 05:50:29;;;;;;;50.85;31.85;;;;;;;;;;5019768;28;20033;-74
2023/04/09 05:52:55;;;;;;;55.85;31.83;;;;;;;;;;5054322;28;20476;-75
2023/04/09 05:55:21;;;;;;;55.42;33.80;;;;;;;;;;5054707;28;20041;-74
2023/04/09 05:57:47;;;;;;;49.08;31.50;;;;;;;;;;5054562;28;20049;-74
2023/04/09 06:00:14;;;;;;;49.17;30.83;;;;;;;;;;5054098;28;20059;-75
2023/04/09 06:02:40;;;;;;;53.13;31.10;;;;;;;;;;5036058;28;20071;-75
2023/04/09 06:05:06;;;;;;;52.28;31.63;;;;;;;;;;5019501;28;20106;-75
2023/04/09 06:07:32;;;;;;;45.25;30.05;;;;;;;;;;5036311;28;20111;-74
2023/04/09 06:09:58;;;;;;;47.95;29.85;;;;;;;;;;5036344;28;20156;-76
2023/04/09 06:12:24;;;;;;;46.22;29.80;;;;;;;;;;5053855;28;20052;-75
2023/04/09 06:14:50;;;;;;;40.88;27.98;;;;;;;;;;5054054;28;20045;-75
2023/04/09 06:17:17;;;;;;;43.15;27.35;;;;;;;;;;5053574;28;20375;-75
2023/04/09 06:19:43;;;;;;;40.67;26.42;;;;;;;;;;5053876;28;20084;-74
2023/04/09 06:22:09;;;;;;;40.90;25.42;;;;;;;;;;5053943;28;20423;-75
2023/04/09 06:24:36;;;;;;;37.65;23.55;;;;;;;;;;5053726;28;20068;-74
2023/04/09 06:27:02;;;;;;;32.58;21.85;;;;;;;;;;5053738;28;20083;-74
2023/04/09 06:29:28;;;;;;;34.17;21.83;;;;;;;;;;5050004;28;20108;-74
2023/04/09 06:31:54;;;;;;;33.42;22.63;;;;;;;;;;5033400;28;20478;-74
2023/04/09 06:34:20;;;;;;;36.17;23.50;;;;;;;;;;5040618;28;20045;-74
2023/04/09 06:36:46;;;;;;;33.90;22.85;;;;;;;;;;5035919;28;20132;-75
2023/04/09 06:39:12;;;;;;;34.08;23.27;;;;;;;;;;5035258;28;20056;-74
2023/04/09 06:41:38;;;;;;;37.75;24.05;;;;;;;;;;5053443;28;20048;-75
2023/04/09 06:44:04;;;;;;;33.78;22.30;;;;;;;;;;5051813;28;20120;-74
2023/04/09 06:46:30;;;;;;;33.75;23.67;;;;;;;;;;5035228;28;20542;-74
2023/04/09 06:48:56;;;;;;;34.55;22.98;;;;;;;;;;5019057;28;20076;-74
2023/04/09 06:51:22;;;;;;;34.40;22.60;;;;;;;;;;5053834;28;20077;-75
2023/04/09 06:53:48;;;;;;;33.22;22.80;;;;;;;;;;5034964;28;20055;-75
2023/04/09 06:56:15;;;;;;;34.63;22.95;;;;;;;;;;5052144;28;20040;-75
2023/04/09 06:58:41;;;;;;;33.92;23.38;;;;;;;;;;5051427;28;20365;-75
2023/04/09 07:01:07;;;;;;;37.38;22.98;;;;;;;;;;5052705;28;20041;-75
2023/04/09 07:03:33;;;;;;;36.67;24.13;;;;;;;;;;5031211;28;20544;-75
2023/04/09 07:05:59;;;;;;;37.42;23.98;;;;;;;;;;5050685;28;20389;-75
2023/04/09 07:08:25;;;;;;;36.45;24.40;;;;;;;;;;5052809;28;20088;-75
2023/04/09 07:10:51;;;;;;;36.83;24.08;;;;;;;;;;5018395;28;20037;-75
2023/04/09 07:13:17;;;;;;;38.78;24.15;;;;;;;;;;5018132;28;20157;-75
2023/04/09 07:15:43;;;;;;;36.45;24.27;;;;;;;;;;5033723;28;20041;-75
2023/04/09 07:18:09;;;;;;;36.55;24.48;;;;;;;;;;5052427;28;20064;-75
2023/04/09 07:20:35;;;;;;;37.85;24.70;;;;;;;;;;5052494;28;20052;-75
2023/04/09 07:23:01;;;;;;;36.50;23.55;;;;;;;;;;5034337;28;20049;-75
2023/04/09 07:25:27;;;;;;;38.05;23.50;;;;;;;;;;5052048;28;20379;-75
2023/04/09 07:27:53;;;;;;;37.55;23.98;;;;;;;;;;5046253;28;20045;-75
2023/04/09 07:30:19;;;;;;;34.30;22.73;;;;;;;;;;5019241;28;20486;-75
2023/04/09 07:32:46;;;;;;;37.58;23.98;;;;;;;;;;5034429;28;20045;-75
2023/04/09 07:35:12;;;;;;;33.67;23.27;;;;;;;;;;5042444;28;20045;-75
2023/04/09 07:37:38;;;;;;;36.58;23.92;;;;;;;;;;5050832;28;20048;-75
2023/04/09 07:40:04;;;;;;;39.88;25.25;;;;;;;;;;5042927;28;20577;-75
2023/04/09 07:42:31;;;;;;;40.33;25.75;;;;;;;;;;5051924;28;20115;-75
2023/04/09 07:44:57;;;;;;;41.53;26.45;;;;;;;;;;5050614;28;20102;-75
2023/04/09 07:47:23;;;;;;;38.95;26.35;;;;;;;;;;5052036;28;20086;-75
2023/04/09 07:49:50;;;;;;;42.40;26.20;;;;;;;;;;5049224;28;20044;-75
2023/04/09 07:52:16;;;;;;;39.08;25.77;;;;;;;;;;5044560;28;20040;-75
2023/04/09 07:54:42;;;;;;;38.83;24.92;;;;;;;;;;5051800;28;20057;-75
2023/04/09 07:57:08;;;;;;;39.63;25.73;;;;;;;;;;5043658;28;20482;-75
2023/04/09 07:59:35;;;;;;;38.35;24.17;;;;;;;;;;5052016;28;20045;-75
2023/04/09 08:02:01;;;;;;;37.80;24.58;;;;;;;;;;5051703;28;20091;-75
2023/04/09 08:04:27;;;;;;;37.33;23.30;;;;;;;;;;5051919;28;20056;-75
2023/04/09 08:06:53;;;;;;;36.90;22.98;;;;;;;;;;5052211;28;20041;-75
2023/04/09 08:09:19;;;;;;;38.85;24.45;;;;;;;;;;5051709;28;20056;-75
2023/04/09 08:11:46;;;;;;;41.78;25.33;;;;;;;;;;5046829;28;20080;-75
2023/04/09 08:14:12;;;;;;;38.25;25.13;;;;;;;;;;5037081;28;20049;-76
2023/04/09 08:16:42;;;;;;;37.25;24.77;;;;;;;;;;5042961;28;20106;-75
2023/04/09 08:19:09;;;;;;;37.17;23.75;;;;;;;;;;5034509;28;20512;-76
2023/04/09 08:21:41;;;;;;;36.90;23.25;;;;;;;;;;5042819;28;20041;-75
2023/04/09 08:24:08;;;;;;;36.70;23.98;;;;;;;;;;5033439;28;20490;-75
2023/04/09 08:26:34;;;;;;;37.13;24.25;;;;;;;;;;5041777;28;20061;-75
2023/04/09 08:29:00;;;;;;;36.45;23.50;;;;;;;;;;5041716;28;20042;-75
2023/04/09 08:31:26;;;;;;;37.80;24.63;;;;;;;;;;5042897;28;20057;-75
2023/04/09 08:33:52;;;;;;;38.83;24.55;;;;;;;;;;5041557;28;20497;-75
2023/04/09 08:36:18;;;;;;;38.15;24.25;;;;;;;;;;5048976;28;20116;-75
2023/04/09 08:38:45;;;;;;;36.50;24.30;;;;;;;;;;5039639;28;20509;-76
2023/04/09 08:41:23;;;;;;;39.08;23.73;;;;;;;;;;5055834;28;20045;-75
2023/04/09 08:43:50;;;;;;;36.08;23.70;;;;;;;;;;5052106;28;20424;-76
2023/04/09 08:46:17;;;;;;;35.47;23.35;;;;;;;;;;5031507;28;20048;-75
2023/04/09 08:48:47;;;;;;;35.03;23.52;;;;;;;;;;5053826;28;20060;-76
2023/04/09 08:51:13;;;;;;;33.45;22.45;;;;;;;;;;5053473;28;20041;-76
2023/04/09 08:53:42;;;;;;;36.10;23.63;;;;;;;;;;5056036;28;20114;-75
2023/04/09 08:56:08;;;;;;;34.33;22.40;;;;;;;;;;5055871;28;20060;-76
2023/04/09 08:58:34;;;;;;;35.03;21.92;;;;;;;;;;5033476;28;20044;-75
2023/04/09 09:01:00;;;;;;;31.42;21.75;;;;;;;;;;5053971;28;20071;-76
2023/04/09 09:03:27;;;;;;;32.80;21.40;;;;;;;;;;5055223;28;20041;-76
2023/04/09 09:05:53;;;;;;;34.65;21.88;;;;;;;;;;5051767;28;20037;-76
2023/04/09 09:08:23;;;;;;;34.83;21.98;;;;;;;;;;5047842;28;20037;-76
2023/04/09 09:10:49;;;;;;;34.92;21.92;;;;;;;;;;5054775;28;20049;-75
2023/04/09 09:13:16;;;;;;;31.90;20.80;;;;;;;;;;5035637;28;20052;-75
2023/04/09 09:15:42;;;;;;;30.77;20.58;;;;;;;;;;5051288;28;20440;-76
2023/04/09 09:18:08;;;;;;;32.17;21.08;;;;;;;;;;5054734;28;20045;-75
2023/04/09 09:20:34;;;;;;;32.67;21.15;;;;;;;;;;5049639;28;20048;-74
2023/04/09 09:23:02;;;;;;;31.60;21.38;;;;;;;;;;5053413;28;20053;-75
2023/04/09 09:25:29;;;;;;;32.53;21.52;;;;;;;;;;5055286;28;20370;-75
2023/04/09 09:28:05;;;;;;;31.90;20.58;;;;;;;;;;5052478;28;20054;-75
2023/04/09 09:30:33;;;;;;;32.58;21.60;;;;;;;;;;5054478;28;20128;-75
2023/04/09 09:33:06;;;;;;;32.13;22.33;;;;;;;;;;5054708;28;20049;-76
2023/04/09 09:35:48;;;;;;;35.22;22.27;;;;;;;;;;5054712;28;20358;-74
2023/04/09 09:38:15;;;;;;;33.03;21.75;;;;;;;;;;5054765;28;20045;-75
2023/04/09 09:40:41;;;;;;;32.50;21.98;;;;;;;;;;5054794;28;20040;-76
2023/04/09 09:43:07;;;;;;;32.40;20.67;;;;;;;;;;5054851;28;20056;-75
2023/04/09 09:45:33;;;;;;;31.40;19.90;;;;;;;;;;5054685;28;20398;-75
2023/04/09 09:47:59;;;;;;;32.88;22.00;;;;;;;;;;5052382;28;20381;-76
2023/04/09 09:50:25;;;;;;;32.88;22.08;;;;;;;;;;5054357;28;20041;-75
2023/04/09 09:52:57;;;;;;;34.15;22.27;;;;;;;;;;5054092;28;20094;-75
2023/04/09 09:55:24;;;;;;;35.20;23.00;;;;;;;;;;5053593;28;20132;-76
2023/04/09 09:57:52;;;;;;;31.92;23.02;;;;;;;;;;5050408;28;20048;-75
2023/04/09 10:00:24;;;;;;;33.88;22.20;;;;;;;;;;5056213;28;20143;-75
2023/04/09 10:02:58;;;;;;;33.83;21.50;;;;;;;;;;5044256;28;20112;-75
2023/04/09 10:05:26;;;;;;;31.15;20.48;;;;;;;;;;5054341;28;20063;-75
2023/04/09 10:08:00;;;;;;;28.80;20.52;;;;;;;;;;5051713;28;20080;-75
2023/04/09 10:10:27;;;;;;;29.35;20.10;;;;;;;;;;5048018;28;20328;-75
2023/04/09 10:12:53;;;;;;;27.92;19.55;;;;;;;;;;5054026;28;20045;-75
2023/04/09 10:15:19;;;;;;;29.55;21.05;;;;;;;;;;5053828;28;20374;-75
2023/04/09 10:17:45;;;;;;;30.33;21.88;;;;;;;;;;5054298;28;20044;-75
2023/04/09 10:20:17;;;;;;;29.00;20.75;;;;;;;;;;5045327;28;20048;-76
2023/04/09 10:22:46;;;;;;;31.15;20.95;;;;;;;;;;5052151;28;20145;-76
2023/04/09 10:25:12;;;;;;;31.13;21.08;;;;;;;;;;5053623;28;20053;-76
2023/04/09 10:27:38;;;;;;;30.20;21.50;;;;;;;;;;5048127;28;20037;-76
2023/04/09 10:30:09;;;;;;;32.10;21.25;;;;;;;;;;5053899;28;20087;-76
2023/04/09 10:32:35;;;;;;;30.40;21.80;;;;;;;;;;5053703;28;20052;-76
2023/04/09 10:35:02;;;;;;;30.25;21.13;;;;;;;;;;5035818;28;20067;-76
2023/04/09 10:37:28;;;;;;;28.20;21.30;;;;;;;;;;5053516;28;20051;-76
2023/04/09 10:39:56;;;;;;;28.52;20.55;;;;;;;;;;5033913;28;20037;-76
2023/04/09 10:42:26;;;;;;;30.02;21.33;;;;;;;;;;5018512;28;20048;-76
2023/04/09 10:45:08;;;;;;;30.83;21.83;;;;;;;;;;5016294;28;20136;-75
2023/04/09 10:47:35;;;;;;;30.05;21.00;;;;;;;;;;5050338;28;20381;-76
2023/04/09 10:50:21;;;;;;;29.10;20.90;;;;;;;;;;5053022;28;20037;-76
2023/04/09 10:52:51;;;;;;;30.30;20.83;;;;;;;;;;5019125;28;20052;-76
2023/04/09 10:55:36;;;;;;;30.35;21.70;;;;;;;;;;5052804;28;20044;-76
2023/04/09 10:58:03;;;;;;;29.15;20.80;;;;;;;;;;5052892;28;20053;-76
2023/04/09 11:00:29;;;;;;;30.02;20.48;;;;;;;;;;5034143;28;20401;-76
2023/04/09 11:02:55;;;;;;;29.95;22.23;;;;;;;;;;5053102;28;20045;-76
2023/04/09 11:05:31;;;;;;;30.30;20.90;;;;;;;;;;5034991;28;20041;-76
2023/04/09 11:08:02;;;;;;;28.80;21.02;;;8.10;99.90;;;;;;5052514;28;20481;-76
2023/04/09 11:10:28;;;;;;;26.15;19.58;;;20.50;99.90;;;;;;5052278;28;20115;-75
2023/04/09 11:12:54;;;;;;;27.13;18.67;;;23.40;98.30;;;;;;5035048;28;20116;-76
2023/04/09 11:15:20;;;;;;;25.83;18.60;;;23.70;93.00;;;;;;5034796;28;20037;-75
2023/04/09 11:17:47;;;;;;;25.77;19.52;;;22.10;90.10;;;;;;5034538;28;20078;-75
2023/04/09 11:20:14;;;;;;;24.52;18.60;;;21.50;93.40;;;;;;5032134;28;20132;-76
2023/04/09 11:22:40;;;;;;;25.25;19.05;;;;;;;;;;5049429;28;20044;-76
2023/04/09 11:25:06;;;;;;;24.40;19.05;;;;;;;;;;5048523;28;20037;-76
2023/04/09 11:27:39;;;;;;;24.73;18.92;;;;;;;;;;5031725;28;20044;-76
2023/04/09 11:30:05;;;;;;;23.95;18.00;;;;;;;;;;5009118;28;20072;-75
2023/04/09 11:32:31;;;;;;;24.23;18.08;;;;;;;;;;5048798;28;20044;-75
2023/04/09 11:35:01;;;;;;;26.33;19.65;;;;;;;;;;5034914;28;20064;-76
2023/04/09 11:37:27;;;;;;;24.25;18.48;;;;;;;;;;5048275;28;20060;-76
2023/04/09 11:39:54;;;;;;;22.95;18.17;;;;;;;;;;5049263;28;20136;-76
2023/04/09 11:42:24;;;;;;;23.67;18.45;;;21.80;94.00;;;;;;5047206;28;20110;-76
2023/04/09 11:44:51;;;;;;;26.40;19.08;;;19.90;91.50;;;;;;5050574;28;20405;-76
2023/04/09 11:47:18;;;;;;;24.27;18.80;;;18.50;93.90;;;;;;5052350;28;20052;-76
2023/04/09 11:49:46;;;;;;;23.40;17.63;;;18.60;94.80;;;;;;5051693;28;20048;-76
2023/04/09 11:52:13;;;;;;;23.17;17.48;;;18.60;95.30;;;;;;5052087;28;20085;-76
2023/04/09 11:54:39;;;;;;;23.90;18.17;;;;;;;;;;5051883;28;20082;-76
2023/04/09 11:57:05;;;;;;;21.77;16.77;;;;;;;;;;5052359;28;20076;-76
2023/04/09 11:59:31;;;;;;;21.30;16.40;;;;;;;;;;5034011;28;20409;-76
2023/04/09 12:01:58;;;;;;;25.05;18.05;;;;;;;;;;5052172;28;20193;-76
2023/04/09 12:04:24;;;;;;;23.58;17.63;;;;;;;;;;5051827;28;20081;-76
2023/04/09 12:06:50;;;;;;;21.85;16.58;;;;;;;;;;5052309;28;20045;-76
2023/04/09 12:09:16;;;;;;;20.90;17.38;;;;;;;;;;5051806;28;20048;-77
2023/04/09 12:11:43;;;;;;;20.90;16.58;;;;;;;;;;5051927;28;20493;-76
2023/04/09 12:14:13;;;;;;;19.75;15.48;;;;;;;;;;5025881;28;20053;-76
2023/04/09 12:16:45;;;;;;;19.30;16.13;;;;;;;;;;5032278;28;20175;-76
2023/04/09 12:19:12;;;;;;;20.42;16.20;;;;;;;;;;5016203;28;20053;-77
2023/04/09 12:21:51;;;;;;;18.30;15.18;;;;;;;;;;5034202;28;20412;-76
2023/04/09 12:24:18;;;;;;;18.50;15.18;;;;;;;;;;5051900;28;20465;-76
2023/04/09 12:26:45;;;;;;;18.40;15.77;;;;;;;;;;5052213;28;20106;-76
2023/04/09 12:29:11;;;;;;;18.10;14.73;;;;;;;;;;5052028;28;20045;-78
2023/04/09 12:31:37;;;;;;;16.92;14.50;;;;;;;;;;5022314;28;20072;-76
2023/04/09 12:34:03;;;;;;;17.65;13.63;;;;;;;;;;5050663;28;20067;-76
2023/04/09 12:36:29;;;;;;;16.92;14.55;;;;;;;;;;5052128;28;20045;-76
2023/04/09 12:38:55;;;;;;;16.88;13.27;;;;;;;;;;5051988;28;20210;-76
2023/04/09 12:41:22;;;;;;;19.50;15.35;;;;;;;;;;5051843;28;20052;-76
2023/04/09 12:43:48;;;;;;;17.38;14.00;;;;;;;;;;5051813;28;20045;-76
2023/04/09 12:46:14;;;;;;;21.45;16.50;;;;;;;;;;5051875;28;20037;-76
2023/04/09 12:48:40;;;;;;;18.60;14.82;;;;;;;;;;5050170;28;20049;-76
2023/04/09 12:51:07;;;;;;;22.75;15.77;;;;;;;;;;5052125;28;20124;-76
2023/04/09 12:53:33;;;;;;;20.02;15.45;;;;;;;;;;5049275;28;20669;-76
2023/04/09 12:56:00;;;;;;;20.98;15.80;;;;;;;;;;5049394;28;20045;-76
2023/04/09 12:58:26;;;;;;;19.73;15.23;;;;;;;;;;5050362;28;20056;-76
2023/04/09 13:00:53;;;;;;;19.38;14.95;;;;;;;;;;5050184;28;20481;-76
2023/04/09 13:03:20;;;;;;;21.30;15.45;;;;;;;;;;5051526;28;20052;-76
2023/04/09 13:05:46;;;;;;;19.17;14.95;;;;;;;;;;5051895;28;20037;-76
2023/04/09 13:08:12;;;;;;;21.58;14.55;;;;;;;;;;5050445;28;20409;-76
2023/04/09 13:10:39;;;;;;;20.45;15.48;;;;;;;;;;5050466;28;20041;-76
2023/04/09 13:13:10;;;;;;;20.10;15.13;;;;;;;;;;5050155;28;20107;-76
2023/04/09 13:15:36;;;;;;;21.08;16.05;;;;;;;;;;5050397;28;20045;-75
2023/04/09 13:18:02;;;;;;;20.73;15.70;;;;;;;;;;5051514;28;20088;-76
2023/04/09 13:20:29;;;;;;;18.10;14.00;;;;;;;;;;5051329;28;20103;-76
2023/04/09 13:22:55;;;;;;;19.20;14.55;;;;;;;;;;5052284;28;20052;-76
2023/04/09 13:25:21;;;;;;;20.67;15.85;;;;;;;;;;5055406;28;20136;-75
2023/04/09 13:27:47;;;;;;;20.92;16.20;;;;;;;;;;5053868;28;20041;-75
2023/04/09 13:30:14;;;;;;;19.67;16.00;;;;;;;;;;5054691;28;20436;-76
2023/04/09 13:32:41;;;;;;;18.25;15.10;;;;;;;;;;5017525;28;20132;-76
2023/04/09 13:35:07;;;;;;;21.38;16.50;;;;;;;;;;5054692;28;20068;-75
2023/04/09 13:37:33;;;;;;;20.23;15.68;;;;;;;;;;5054008;28;20044;-75
2023/04/09 13:40:00;;;;;;;22.52;16.65;;;;;;;;;;5054439;28;20045;-75
2023/04/09 13:42:26;;;;;;;20.58;15.40;;;;;;;;;;5054209;28;20137;-76
2023/04/09 13:44:52;;;;;;;21.92;15.38;;;;;;;;;;5036635;28;20049;-76
2023/04/09 13:47:18;;;;;;;21.80;16.02;;;;;;;;;;5036812;28;20087;-77
2023/04/09 13:49:45;;;;;;;20.98;15.90;;;;;;;;;;5044883;28;20037;-76
2023/04/09 13:52:11;;;;;;;21.35;15.45;;;;;;;;;;5008830;28;20078;-75
2023/04/09 13:54:37;;;;;;;19.83;14.77;;;;;;;;;;5038897;28;20041;-76
2023/04/09 13:57:03;;;;;;;18.88;13.88;;;;;;;;;;5022655;28;20041;-75
2023/04/09 13:59:29;;;;;;;18.30;14.68;;;;;;;;;;5039357;28;20041;-75
2023/04/09 14:01:55;;;;;;;19.70;14.40;;;;;;;;;;5038351;28;20120;-75
2023/04/09 14:04:21;;;;;;;19.90;15.18;;;;;;;;;;5040176;28;20129;-76
2023/04/09 14:06:47;;;;;;;19.75;14.55;;;;;;;;;;5028445;28;20092;-76
2023/04/09 14:09:14;;;;;;;22.65;14.80;;;;;;;;;;5048117;28;20327;-77
2023/04/09 14:11:40;;;;;;;19.60;14.45;;;;;;;;;;5046594;28;20042;-77